Time;durP1;ratioP1;P1;durP2;ratioP2;P2;SDS_P1;SDS_P2;PMS_P1;PMS_P2;Temp;Humidity;BMP_temperature;BMP_pressure;BME280_temperature;BME280_humidity;BME280_pressure;Samples;Min_cycle;Max_cycle;Signal;HPM_P1;HPM_P2
2022/06/02 00:00:53;;;;;;;;;27.33;23.67;;;;;;;;5035595;28;45551;-68
2022/06/02 00:03:24;;;;;;;;;26.00;25.67;;;;;;;;5037113;28;45437;-67
2022/06/02 00:06:16;;;;;;;;;20.33;20.33;;;;;;;;5037455;28;47232;-67
2022/06/02 00:08:47;;;;;;;;;23.33;21.33;;;;;;;;5037559;28;45397;-68
2022/06/02 00:11:15;;;;;;;;;21.33;20.00;;;;;;;;5038368;28;45266;-67
2022/06/02 00:14:02;;;;;;;;;19.00;19.00;;;;;;;;5056937;28;45386;-68
2022/06/02 00:16:35;;;;;;;;;19.33;18.00;;;;;;;;5058004;28;45532;-67
2022/06/02 00:19:11;;;;;;;;;23.67;20.00;;;;;;;;5058053;28;45293;-68
2022/06/02 00:21:42;;;;;;;;;27.67;23.67;;;;;;;;5058090;28;45447;-68
2022/06/02 00:24:10;;;;;;;;;21.67;18.33;;;;;;;;5058278;28;45382;-68
2022/06/02 00:27:02;;;;;;;;;20.67;17.33;;;;;;;;5057687;28;46556;-68
2022/06/02 00:29:30;;;;;;;;;23.67;22.00;;;;;;;;5057739;28;45331;-68
2022/06/02 00:31:58;;;;;;;;;24.67;21.00;;;;;;;;5058360;28;45436;-68
2022/06/02 00:34:39;;;;;;;;;22.00;21.00;;;;;;;;5057853;28;45321;-68
2022/06/02 00:37:04;;;;;;;;;26.33;22.00;;;;;;;;5057528;28;45781;-68
2022/06/02 00:39:30;;;;;;;;;24.33;21.33;;;;;;;;5057739;28;45292;-68
2022/06/02 00:42:08;;;;;;;;;24.00;21.33;;;;;;;;5057915;28;45321;-68
2022/06/02 00:44:33;;;;;;;;;21.33;19.33;;;;;;;;5057731;28;45336;-68
2022/06/02 00:47:06;;;;;;;;;23.00;22.67;;;;;;;;5057481;28;45986;-68
2022/06/02 00:49:39;;;;;;;;;24.67;20.00;;;;;;;;5057153;28;45437;-68
2022/06/02 00:52:11;;;;;;;;;20.33;19.00;;;;;;;;5057623;28;45289;-68
2022/06/02 00:57:39;;;;;;;;;23.33;19.00;;;;;;;;5057382;28;45417;-68
2022/06/02 01:00:13;;;;;;;;;23.67;21.00;;;;;;;;5057470;28;45504;-68
2022/06/02 01:02:51;;;;;;;;;20.33;20.33;;;;;;;;5057493;28;45234;-68
2022/06/02 01:05:21;;;;;;;;;19.00;18.33;;;;;;;;5057419;28;45423;-68
2022/06/02 01:08:10;;;;;;;;;20.67;19.00;;;;;;;;5056215;28;46639;-68
2022/06/02 01:11:01;;;;;;;;;22.67;20.00;;;;;;;;5057563;28;45223;-68
2022/06/02 01:13:49;;;;;;;;;20.00;18.00;;;;;;;;5057257;28;45264;-68
2022/06/02 01:16:39;;;;;;;;;23.33;21.00;;;;;;;;5054434;28;45346;-68
2022/06/02 01:19:28;;;;;;;;;25.00;22.67;;;;;;;;5056962;28;45377;-68
2022/06/02 01:21:56;;;;;;;;;23.00;20.33;;;;;;;;5057108;28;45407;-67
2022/06/02 01:24:36;;;;;;;;;22.33;19.00;;;;;;;;5057277;28;45420;-68
2022/06/02 01:27:12;;;;;;;;;20.33;18.67;;;;;;;;5057191;28;45482;-68
2022/06/02 01:29:40;;;;;;;;;21.00;16.00;;;;;;;;5056991;28;45454;-68
2022/06/02 01:32:16;;;;;;;;;19.00;17.67;;;;;;;;5056674;28;45408;-68
2022/06/02 01:34:44;;;;;;;;;20.33;18.00;;;;;;;;5056983;28;45315;-68
2022/06/02 01:37:12;;;;;;;;;24.00;19.00;;;;;;;;5057149;28;45340;-68
2022/06/02 01:39:55;;;;;;;;;22.67;18.33;;;;;;;;5056736;28;46138;-68
2022/06/02 01:42:39;;;;;;;;;23.00;21.00;;;;;;;;5056892;28;45312;-68
2022/06/02 01:45:10;;;;;;;;;24.67;22.33;;;;;;;;5057020;28;45282;-68
2022/06/02 01:47:37;;;;;;;;;24.00;24.00;;;;;;;;5057056;28;45527;-68
2022/06/02 01:50:21;;;;;;;;;25.00;23.00;;;;;;;;5056529;28;45479;-68
2022/06/02 01:53:05;;;;;;;;;36.00;30.00;;;;;;;;5056656;28;45360;-68
2022/06/02 01:55:52;;;;;;;;;22.67;22.00;;;;;;;;5056321;28;45415;-68
2022/06/02 01:58:20;;;;;;;;;26.33;24.00;;;;;;;;5057085;28;45327;-68
2022/06/02 02:00:50;;;;;;;;;29.00;26.00;;;;;;;;5056520;28;46265;-68
2022/06/02 02:03:24;;;;;;;;;27.00;22.33;;;;;;;;5056641;28;45267;-67
2022/06/02 02:06:08;;;;;;;;;25.33;23.00;;;;;;;;5056617;28;45228;-68
2022/06/02 02:08:58;;;;;;;;;25.00;25.00;;;;;;;;5056668;28;45333;-68
2022/06/02 02:11:45;;;;;;;;;26.67;26.67;;;;;;;;5055613;28;46280;-68
2022/06/02 02:14:11;;;;;;;;;25.33;23.00;;;;;;;;5056475;28;45275;-68
2022/06/02 02:16:39;;;;;;;;;26.33;24.67;;;;;;;;5056611;28;45238;-68
2022/06/02 02:19:22;;;;;;;;;34.33;27.67;;;;;;;;5057550;28;45335;-68
2022/06/02 02:21:57;;;;;;;;;28.33;25.33;;;;;;;;5059732;28;46392;-68
2022/06/02 02:24:28;;;;;;;;;27.33;26.67;;;;;;;;5059896;28;45196;-68
2022/06/02 02:27:12;;;;;;;;;23.33;22.00;;;;;;;;5059972;28;45333;-67
2022/06/02 02:29:46;;;;;;;;;25.33;23.67;;;;;;;;5060242;28;45300;-67
2022/06/02 02:32:30;;;;;;;;;28.33;28.33;;;;;;;;5059488;28;45360;-68
2022/06/02 02:35:16;;;;;;;;;32.00;28.33;;;;;;;;5059476;28;45325;-68
2022/06/02 02:37:52;;;;;;;;;27.00;25.00;;;;;;;;5059373;28;45243;-67
2022/06/02 02:40:30;;;;;;;;;29.00;25.33;;;;;;;;5059981;28;45371;-68
2022/06/02 02:42:56;;;;;;;;;22.00;22.00;;;;;;;;5059619;28;45990;-67
2022/06/02 02:45:30;;;;;;;;;28.33;23.00;;;;;;;;5059651;28;45282;-67
2022/06/02 02:47:55;;;;;;;;;34.33;30.00;;;;;;;;5059739;28;45308;-67
2022/06/02 02:50:26;;;;;;;;;34.00;28.67;;;;;;;;5059762;28;45415;-68
2022/06/02 02:52:56;;;;;;;;;30.67;28.33;;;;;;;;5059457;28;45414;-68
2022/06/02 02:55:36;;;;;;;;;29.33;27.33;;;;;;;;5059371;28;45504;-68
2022/06/02 02:58:28;;;;;;;;;32.33;27.33;;;;;;;;5059336;28;45364;-67
2022/06/02 03:01:00;;;;;;;;;28.67;25.00;;;;;;;;5058422;28;45382;-67
2022/06/02 03:03:38;;;;;;;;;28.00;25.33;;;;;;;;5059220;28;45804;-68
2022/06/02 03:06:03;;;;;;;;;31.00;27.33;;;;;;;;5059214;28;45284;-67
2022/06/02 03:08:41;;;;;;;;;29.00;26.00;;;;;;;;5059207;28;45575;-68
2022/06/02 03:11:24;;;;;;;;;35.00;28.00;;;;;;;;5059494;28;45329;-68
2022/06/02 03:13:50;;;;;;;;;28.00;26.00;;;;;;;;5058845;28;45463;-68
2022/06/02 03:16:15;;;;;;;;;29.33;26.33;;;;;;;;5059394;28;45433;-67
2022/06/02 03:18:59;;;;;;;;;31.67;29.00;;;;;;;;5059106;28;45442;-68
2022/06/02 03:21:44;;;;;;;;;28.67;27.67;;;;;;;;5059183;28;45258;-68
2022/06/02 03:24:24;;;;;;;;;25.67;22.33;;;;;;;;5058483;28;46257;-67
2022/06/02 03:26:53;;;;;;;;;34.00;30.33;;;;;;;;5058861;28;45311;-67
2022/06/02 03:29:33;;;;;;;;;32.67;27.67;;;;;;;;5058741;28;45255;-68
2022/06/02 03:32:01;;;;;;;;;39.00;31.33;;;;;;;;5058199;28;45431;-68
2022/06/02 03:34:46;;;;;;;;;35.33;31.00;;;;;;;;5058595;28;46275;-67
2022/06/02 03:37:14;;;;;;;;;35.67;28.00;;;;;;;;5058857;28;45337;-67
2022/06/02 03:39:39;;;;;;;;;29.67;25.00;;;;;;;;5058905;28;45271;-67
2022/06/02 03:42:10;;;;;;;;;27.67;27.67;;;;;;;;5058749;28;45294;-67
2022/06/02 03:44:41;;;;;;;;;33.33;28.33;;;;;;;;5058660;28;45513;-67
2022/06/02 03:47:25;;;;;;;;;33.00;27.33;;;;;;;;5058715;28;45556;-67
2022/06/02 03:49:53;;;;;;;;;41.00;33.67;;;;;;;;5058862;28;45467;-67
2022/06/02 03:52:37;;;;;;;;;32.67;28.33;;;;;;;;5058584;28;45518;-67
2022/06/02 03:55:21;;;;;;;;;36.33;31.33;;;;;;;;5057994;28;46689;-67
2022/06/02 03:57:46;;;;;;;;;30.33;28.33;;;;;;;;5058221;28;45232;-67
2022/06/02 04:00:20;;;;;;;;;37.00;33.33;;;;;;;;5058546;28;45329;-67
2022/06/02 04:03:03;;;;;;;;;32.33;29.33;;;;;;;;5058401;28;45321;-68
2022/06/02 04:05:44;;;;;;;;;39.33;32.67;;;;;;;;5058196;28;45277;-68
2022/06/02 04:08:28;;;;;;;;;32.33;30.67;;;;;;;;5058008;28;45213;-67
2022/06/02 04:11:08;;;;;;;;;24.33;23.33;;;;;;;;5058231;28;45345;-67
2022/06/02 04:13:40;;;;;;;;;39.00;29.33;;;;;;;;5058351;28;45404;-67
2022/06/02 04:16:23;;;;;;;;;36.00;31.00;;;;;;;;5058179;28;47643;-67
2022/06/02 04:18:52;;;;;;;;;38.00;33.00;;;;;;;;5057946;28;45518;-68
2022/06/02 04:21:19;;;;;;;;;36.33;33.67;;;;;;;;5058022;28;45282;-67
2022/06/02 04:24:04;;;;;;;;;39.33;32.67;;;;;;;;5058260;28;45317;-67
2022/06/02 04:26:45;;;;;;;;;40.00;35.00;;;;;;;;5039939;28;46843;-68
2022/06/02 04:29:20;;;;;;;;;38.67;33.67;;;;;;;;5057782;28;45581;-68
2022/06/02 04:31:45;;;;;;;;;42.00;33.67;;;;;;;;5057964;28;45381;-68
2022/06/02 04:34:25;;;;;;;;;37.67;32.00;;;;;;;;5057902;28;45368;-67
2022/06/02 04:36:50;;;;;;;;;43.00;36.00;;;;;;;;5057706;28;46387;-68
2022/06/02 04:39:30;;;;;;;;;35.67;31.33;;;;;;;;5057694;28;45289;-68
2022/06/02 04:42:05;;;;;;;;;41.67;34.67;;;;;;;;5058019;28;45377;-67
2022/06/02 04:44:52;;;;;;;;;36.67;31.00;;;;;;;;5057761;28;45385;-68
2022/06/02 04:47:22;;;;;;;;;42.00;33.00;;;;;;;;5057592;28;46152;-68
2022/06/02 04:49:54;;;;;;;;;41.00;34.67;;;;;;;;5057695;28;45336;-67
2022/06/02 04:52:31;;;;;;;;;46.00;35.67;;;;;;;;5057508;28;45297;-67
2022/06/02 04:55:15;;;;;;;;;41.00;35.00;;;;;;;;5057559;28;45155;-68
2022/06/02 04:57:40;;;;;;;;;38.67;31.67;;;;;;;;5057413;28;46368;-67
2022/06/02 05:00:09;;;;;;;;;37.67;33.33;;;;;;;;5057303;28;45163;-68
2022/06/02 05:02:43;;;;;;;;;41.67;34.67;;;;;;;;5057387;28;45367;-68
2022/06/02 05:05:15;;;;;;;;;34.33;32.67;;;;;;;;5057853;28;45229;-68
2022/06/02 05:07:59;;;;;;;;;45.33;33.00;;;;;;;;5056852;28;45259;-68
2022/06/02 05:10:34;;;;;;;;;68.25;52.50;;;;;;;;5057404;28;45295;-68
2022/06/02 05:13:05;;;;;;;;;37.33;32.67;;;;;;;;5057261;28;45463;-67
2022/06/02 05:15:36;;;;;;;;;45.00;37.67;;;;;;;;5057223;28;45549;-67
2022/06/02 05:18:08;;;;;;;;;39.67;33.00;;;;;;;;5056999;28;46617;-67
2022/06/02 05:20:36;;;;;;;;;40.00;33.00;;;;;;;;5056715;28;45377;-67
2022/06/02 05:23:10;;;;;;;;;40.00;31.33;;;;;;;;5056903;28;45266;-67
2022/06/02 05:25:41;;;;;;;;;46.00;36.67;;;;;;;;5057216;28;45352;-67
2022/06/02 05:28:13;;;;;;;;;37.00;33.33;;;;;;;;5038642;28;46596;-67
2022/06/02 05:30:50;;;;;;;;;40.67;34.67;;;;;;;;5057251;28;45467;-67
2022/06/02 05:33:27;;;;;;;;;35.67;32.00;;;;;;;;5056987;28;45395;-67
2022/06/02 05:36:11;;;;;;;;;38.00;33.00;;;;;;;;5057218;28;45431;-67
2022/06/02 05:38:48;;;;;;;;;36.00;33.00;;;;;;;;5056454;28;46287;-67
2022/06/02 05:41:16;;;;;;;;;35.67;32.67;;;;;;;;5057018;28;45501;-67
2022/06/02 05:43:41;;;;;;;;;40.00;34.67;;;;;;;;5056970;28;45325;-67
2022/06/02 05:46:09;;;;;;;;;36.00;31.00;;;;;;;;5057196;28;45351;-67
2022/06/02 05:48:44;;;;;;;;;37.67;32.33;;;;;;;;5056627;28;47262;-67
2022/06/02 05:51:27;;;;;;;;;36.00;31.67;;;;;;;;5056807;28;45387;-67
2022/06/02 05:53:53;;;;;;;;;42.00;33.67;;;;;;;;5057587;28;45286;-67
2022/06/02 05:56:31;;;;;;;;;35.67;29.67;;;;;;;;5060414;28;45551;-67
2022/06/02 05:59:15;;;;;;;;;29.33;27.67;;;;;;;;5060267;28;46613;-67
2022/06/02 06:01:47;;;;;;;;;26.67;25.67;;;;;;;;5060259;28;45357;-68
2022/06/02 06:04:30;;;;;;;;;25.33;24.67;;;;;;;;5060448;28;45634;-67
2022/06/02 06:07:22;;;;;;;;;22.33;22.33;;;;;;;;5060547;28;45313;-68
2022/06/02 06:09:48;;;;;;;;;30.67;30.00;;;;;;;;5051158;28;47084;-67
2022/06/02 06:12:22;;;;;;;;;31.67;27.67;;;;;;;;5060020;28;45333;-67
2022/06/02 06:14:57;;;;;;;;;30.33;28.00;;;;;;;;5060423;28;45376;-67
2022/06/02 06:17:31;;;;;;;;;26.67;26.00;;;;;;;;5060372;28;45277;-67
2022/06/02 06:19:56;;;;;;;;;29.67;24.00;;;;;;;;5059606;28;45553;-67
2022/06/02 06:22:24;;;;;;;;;26.67;23.33;;;;;;;;5060089;28;45361;-67
2022/06/02 06:25:03;;;;;;;;;27.33;25.33;;;;;;;;5060322;28;45404;-67
2022/06/02 06:27:34;;;;;;;;;20.67;20.67;;;;;;;;5059996;28;45523;-67
2022/06/02 06:30:18;;;;;;;;;25.33;23.00;;;;;;;;5059827;28;47093;-67
2022/06/02 06:32:55;;;;;;;;;24.67;22.33;;;;;;;;5059703;28;45358;-68
2022/06/02 06:35:29;;;;;;;;;27.67;24.33;;;;;;;;5059975;28;45242;-67
2022/06/02 06:38:03;;;;;;;;;23.33;23.33;;;;;;;;5059815;28;45456;-67
2022/06/02 06:40:47;;;;;;;;;22.33;22.00;;;;;;;;5059589;28;45270;-67
2022/06/02 06:43:15;;;;;;;;;25.67;19.33;;;;;;;;5059497;28;45391;-67
2022/06/02 06:45:50;;;;;;;;;24.33;22.33;;;;;;;;5059761;28;45353;-68
2022/06/02 06:48:32;;;;;;;;;28.67;22.00;;;;;;;;5059856;28;45415;-67
2022/06/02 06:51:17;;;;;;;;;23.33;20.00;;;;;;;;5059354;28;47441;-67
2022/06/02 06:53:58;;;;;;;;;23.33;21.33;;;;;;;;5055165;28;45333;-67
2022/06/02 06:56:26;;;;;;;;;23.67;19.67;;;;;;;;5059379;28;45348;-68
2022/06/02 06:59:10;;;;;;;;;28.33;20.33;;;;;;;;5059645;28;45303;-67
2022/06/02 07:01:36;;;;;;;;;21.67;19.00;;;;;;;;5059489;28;46173;-67
2022/06/02 07:04:07;;;;;;;;;26.33;20.00;;;;;;;;5059616;28;45424;-67
2022/06/02 07:06:52;;;;;;;;;20.00;19.33;;;;;;;;5058479;28;45382;-67
2022/06/02 07:09:41;;;;;;;;;27.00;23.00;;;;;;;;5059447;28;45333;-67
2022/06/02 07:15:06;;;;;;;;;27.67;21.00;;;;;;;;5059182;28;45228;-67
2022/06/02 07:17:47;;;;;;;;;29.67;24.33;;;;;;;;5059312;28;45278;-67
2022/06/02 07:20:18;;;;;;;;;21.00;20.67;;;;;;;;5059449;28;45402;-67
2022/06/02 07:22:53;;;;;;;;;19.00;18.33;;;;;;;;5058974;28;46432;-67
2022/06/02 07:25:21;;;;;;;;;22.00;18.67;;;;;;;;5058975;28;45254;-67
2022/06/02 07:27:52;;;;;;;;;14.67;13.67;;;;;;;;5059069;28;45441;-67
2022/06/02 07:30:36;;;;;;;;;19.67;14.67;;;;;;;;5059356;28;45349;-68
2022/06/02 07:33:20;;;;;;;;;15.00;14.33;;;;;;;;5058838;28;45277;-67
2022/06/02 07:35:54;;;;;;;;;18.33;17.33;;;;;;;;5058794;28;45454;-67
2022/06/02 07:38:22;;;;;;;;;13.33;13.00;;;;;;;;5058748;28;45357;-67
2022/06/02 07:40:57;;;;;;;;;17.67;16.00;;;;;;;;5059170;28;45445;-67
2022/06/02 07:43:29;;;;;;;;;15.67;13.00;;;;;;;;5058163;28;46667;-67
2022/06/02 07:46:04;;;;;;;;;21.00;17.33;;;;;;;;5058646;28;45431;-67
2022/06/02 07:48:43;;;;;;;;;28.00;22.33;;;;;;;;5057697;28;45234;-67
2022/06/02 07:51:22;;;;;;;;;22.67;19.00;;;;;;;;5058957;28;45373;-67
2022/06/02 07:53:50;;;;;;;;;8.33;7.00;;;;;;;;5058394;28;46538;-67
2022/06/02 07:56:16;;;;;;;;;19.67;18.00;;;;;;;;5058262;28;45414;-67
2022/06/02 07:58:47;;;;;;;;;21.00;18.33;;;;;;;;5058525;28;45321;-67
2022/06/02 08:01:18;;;;;;;;;18.33;16.67;;;;;;;;5058799;28;45358;-67
2022/06/02 08:03:45;;;;;;;;;19.33;18.00;;;;;;;;5058321;28;45397;-68
2022/06/02 08:06:19;;;;;;;;;18.33;15.67;;;;;;;;5058420;28;45307;-67
2022/06/02 08:08:49;;;;;;;;;18.00;14.00;;;;;;;;5058418;28;45341;-67
2022/06/02 08:11:28;;;;;;;;;19.33;14.67;;;;;;;;5058644;28;45472;-67
2022/06/02 08:14:11;;;;;;;;;18.00;17.67;;;;;;;;5055215;28;46286;-67
2022/06/02 08:16:53;;;;;;;;;19.67;13.67;;;;;;;;5054969;28;45451;-67
2022/06/02 08:19:37;;;;;;;;;24.00;16.33;;;;;;;;5058413;28;45312;-67
2022/06/02 08:22:04;;;;;;;;;15.33;13.33;;;;;;;;5040306;28;45497;-67
2022/06/02 08:24:33;;;;;;;;;13.33;12.33;;;;;;;;5058158;28;46209;-67
2022/06/02 08:27:17;;;;;;;;;18.67;13.00;;;;;;;;5058197;28;45319;-67
2022/06/02 08:30:01;;;;;;;;;19.67;13.67;;;;;;;;5058010;28;45463;-67
2022/06/02 08:32:29;;;;;;;;;20.00;17.00;;;;;;;;5040008;28;45348;-67
2022/06/02 08:35:04;;;;;;;;;20.33;15.67;;;;;;;;5058030;28;45380;-67
2022/06/02 08:37:32;;;;;;;;;15.33;14.33;;;;;;;;5058049;28;45427;-67
2022/06/02 08:39:57;;;;;;;;;16.33;14.33;;;;;;;;5057823;28;45453;-67
2022/06/02 08:42:23;;;;;;;;;20.67;20.00;;;;;;;;5057991;28;45408;-68
2022/06/02 08:44:57;;;;;;;;;20.33;18.00;;;;;;;;5057704;28;46183;-68
2022/06/02 08:47:41;;;;;;;;;19.00;16.33;;;;;;;;5057864;28;45458;-67
2022/06/02 08:50:25;;;;;;;;;11.33;11.33;;;;;;;;5057930;28;45340;-67
2022/06/02 08:53:07;;;;;;;;;16.33;16.33;;;;;;;;5057906;28;45398;-67
2022/06/02 08:55:53;;;;;;;;;18.67;18.67;;;;;;;;5057357;28;46189;-67
2022/06/02 08:58:37;;;;;;;;;20.00;19.00;;;;;;;;5057605;28;45433;-67
2022/06/02 09:01:21;;;;;;;;;21.33;20.00;;;;;;;;5057602;28;45223;-67
2022/06/02 09:04:04;;;;;;;;;12.67;10.67;;;;;;;;5057940;28;45359;-67
2022/06/02 09:06:42;;;;;;;;;20.33;14.00;;;;;;;;5057590;28;46318;-67
2022/06/02 09:09:29;;;;;;;;;14.67;13.67;;;;;;;;5057221;28;45411;-67
2022/06/02 09:12:26;;;;;;;;;20.67;16.33;;;;;;;;5057707;28;45401;-67
2022/06/02 09:14:51;;;;;;;;;14.00;12.67;;;;;;;;5057713;28;45355;-67
2022/06/02 09:17:23;;;;;;;;;17.67;14.33;;;;;;;;5057370;28;45420;-67
2022/06/02 09:20:00;;;;;;;;;15.67;14.00;;;;;;;;5057393;28;45581;-67
2022/06/02 09:22:45;;;;;;;;;15.00;13.00;;;;;;;;5057595;28;45226;-67
2022/06/02 09:25:17;;;;;;;;;25.00;15.00;;;;;;;;5034935;28;45346;-67
2022/06/02 09:28:13;;;;;;;;;14.67;12.33;;;;;;;;5033141;28;46014;-67
2022/06/02 09:31:00;;;;;;;;;10.67;9.67;;;;;;;;5039953;28;45579;-66
2022/06/02 09:33:38;;;;;;;;;10.33;10.33;;;;;;;;5041813;28;45475;-67
2022/06/02 09:36:04;;;;;;;;;9.33;9.33;;;;;;;;5046128;28;45541;-67
2022/06/02 09:38:41;;;;;;;;;13.33;13.33;;;;;;;;5038045;28;45540;-67
2022/06/02 09:41:06;;;;;;;;;14.33;13.33;;;;;;;;5037723;28;45448;-67
2022/06/02 09:43:35;;;;;;;;;10.33;10.33;;;;;;;;5041335;28;45545;-67
2022/06/02 09:46:21;;;;;;;;;8.00;8.00;;;;;;;;5043851;28;45817;-67
2022/06/02 09:48:52;;;;;;;;;11.67;11.67;;;;;;;;5043467;28;47512;-68
2022/06/02 09:51:20;;;;;;;;;10.00;10.00;;;;;;;;5034469;28;45526;-67
2022/06/02 09:53:46;;;;;;;;;9.67;9.00;;;;;;;;5034443;28;45504;-68
2022/06/02 09:56:17;;;;;;;;;11.00;9.00;;;;;;;;5034654;28;45449;-68
2022/06/02 09:58:45;;;;;;;;;8.67;7.33;;;;;;;;5034615;28;45604;-68
2022/06/02 10:01:23;;;;;;;;;9.33;8.00;;;;;;;;5034406;28;45472;-68
2022/06/02 10:04:01;;;;;;;;;6.33;5.33;;;;;;;;5057052;28;45266;-68
2022/06/02 10:06:44;;;;;;;;;6.33;6.33;;;;;;;;5056328;28;45365;-68
2022/06/02 10:09:28;;;;;;;;;7.00;7.00;;;;;;;;5056322;28;46544;-68
2022/06/02 10:11:53;;;;;;;;;8.00;6.33;;;;;;;;5056788;28;45251;-68
2022/06/02 10:14:28;;;;;;;;;5.00;5.00;;;;;;;;5056364;28;45229;-68
2022/06/02 10:16:56;;;;;;;;;7.67;7.67;;;;;;;;5055700;28;45459;-68
2022/06/02 10:19:24;;;;;;;;;6.33;5.00;;;;;;;;5056621;28;45408;-68
2022/06/02 10:21:52;;;;;;;;;5.33;5.33;;;;;;;;5056563;28;45286;-68
2022/06/02 10:24:17;;;;;;;;;6.00;6.00;;;;;;;;5056578;28;45432;-68
2022/06/02 10:26:56;;;;;;;;;6.00;4.75;;;;;;;;5057479;28;45411;-69
2022/06/02 10:29:21;;;;;;;;;5.75;5.00;;;;;;;;5057201;28;45337;-69
2022/06/02 10:31:47;;;;;;;;;6.67;3.33;;;;;;;;5063321;28;45225;-69
2022/06/02 10:34:31;;;;;;;;;4.50;4.50;;;;;;;;5073488;28;45439;-68
2022/06/02 10:37:02;;;;;;;;;4.75;4.25;;;;;;;;5063547;28;45435;-69
2022/06/02 10:39:46;;;;;;;;;6.25;5.00;;;;;;;;5074496;28;45464;-69
2022/06/02 10:42:24;;;;;;;;;4.00;4.00;;;;;;;;5067353;28;45494;-69
2022/06/02 10:45:05;;;;;;;;;6.25;4.00;;;;;;;;5059372;28;45144;-69
2022/06/02 10:47:45;;;;;;;;;5.00;5.00;;;;;;;;5059659;28;45364;-69
2022/06/02 10:50:26;;;;;;;;;5.50;5.50;;;;;;;;5058602;28;46589;-68
2022/06/02 10:52:57;;;;;;;;;4.25;4.25;;;;;;;;5039808;28;45445;-69
2022/06/02 10:55:22;;;;;;;;;7.00;7.00;;;;;;;;5058123;28;45591;-68
2022/06/02 10:58:10;;;;;;;;;7.00;6.50;;;;;;;;5058031;28;45427;-69
2022/06/02 11:00:38;;;;;;;;;4.50;4.50;;;;;;;;5057937;28;45398;-68
2022/06/02 11:03:22;;;;;;;;;5.33;5.33;;;;;;;;5057725;28;45425;-69
2022/06/02 11:06:06;;;;;;;;;7.75;7.75;;;;;;;;5057453;28;45499;-68
2022/06/02 11:08:40;;;;;;;;;10.67;8.00;;;;;;;;5056984;28;45559;-68
2022/06/02 11:11:09;;;;;;;;;6.67;4.67;;;;;;;;5060161;28;46166;-65
2022/06/02 11:13:36;;;;;;;;;6.67;6.67;;;;;;;;5071629;28;45298;-65
2022/06/02 11:16:08;;;;;;;;;10.67;9.33;;;;;;;;5058816;28;45497;-65
2022/06/02 11:18:42;;;;;;;;;7.67;7.67;;;;;;;;5062699;28;45450;-65
2022/06/02 11:21:26;;;;;;;;;5.00;5.00;;;;;;;;5066690;28;45436;-65
2022/06/02 11:24:00;;;;;;;;;4.67;4.67;;;;;;;;5077324;28;45376;-65
2022/06/02 11:26:52;;;;;;;;;8.67;7.33;;;;;;;;5066515;28;45480;-65
2022/06/02 11:29:43;;;;;;;;;10.33;8.00;;;;;;;;5057769;28;45524;-65
2022/06/02 11:32:11;;;;;;;;;11.67;11.33;;;;;;;;5055922;28;46050;-65
2022/06/02 11:34:39;;;;;;;;;10.67;10.67;;;;;;;;5056095;28;45463;-65
2022/06/02 11:37:05;;;;;;;;;7.00;7.00;;;;;;;;5056119;28;45434;-64
2022/06/02 11:39:33;;;;;;;;;9.67;8.00;;;;;;;;5036354;28;45452;-65
2022/06/02 11:42:08;;;;;;;;;6.33;6.00;;;;;;;;5035895;28;46548;-65
2022/06/02 11:44:41;;;;;;;;;9.67;9.67;;;;;;;;5041938;28;45422;-65
2022/06/02 11:47:15;;;;;;;;;12.33;10.67;;;;;;;;5056274;28;45432;-65
2022/06/02 11:49:43;;;;;;;;;9.00;9.00;;;;;;;;5056197;28;45528;-65
2022/06/02 11:52:08;;;;;;;;;5.00;5.00;;;;;;;;5044445;28;46219;-64
2022/06/02 11:54:33;;;;;;;;;8.00;8.00;;;;;;;;5058159;28;45476;-64
2022/06/02 11:57:17;;;;;;;;;9.00;9.00;;;;;;;;5040036;28;45469;-65
2022/06/02 11:59:54;;;;;;;;;10.67;8.00;;;;;;;;5069040;28;45498;-64
2022/06/02 12:02:30;;;;;;;;;14.00;11.33;;;;;;;;5051677;28;45517;-65
2022/06/02 12:04:58;;;;;;;;;13.67;13.00;;;;;;;;5040941;28;45584;-65
2022/06/02 12:07:34;;;;;;;;;13.67;12.00;;;;;;;;5054958;28;45557;-64
2022/06/02 12:09:59;;;;;;;;;15.67;13.67;;;;;;;;5038942;28;45489;-65
2022/06/02 12:12:33;;;;;;;;;12.00;12.00;;;;;;;;5037881;28;45527;-65
2022/06/02 12:15:11;;;;;;;;;14.33;9.00;;;;;;;;5037742;28;45397;-64
2022/06/02 12:17:47;;;;;;;;;6.00;6.00;;;;;;;;5044019;28;45489;-65
2022/06/02 12:20:24;;;;;;;;;20.00;17.33;;;;;;;;5056052;28;45411;-65
2022/06/02 12:22:52;;;;;;;;;9.67;9.67;;;;;;;;5044181;28;46024;-65
2022/06/02 12:25:23;;;;;;;;;9.67;8.67;;;;;;;;5037483;28;45469;-64
2022/06/02 12:27:49;;;;;;;;;8.00;8.00;;;;;;;;5063890;28;45642;-65
2022/06/02 12:30:37;;;;;;;;;8.67;8.67;;;;;;;;5062703;28;45267;-65
2022/06/02 12:33:05;;;;;;;;;9.00;9.00;;;;;;;;5055305;28;46744;-65
2022/06/02 12:35:39;;;;;;;;;7.00;7.00;;;;;;;;5071310;28;45503;-65
2022/06/02 12:38:23;;;;;;;;;7.33;6.00;;;;;;;;5055990;28;45308;-64
2022/06/02 12:40:51;;;;;;;;;11.67;10.33;;;;;;;;5068721;28;45603;-65
2022/06/02 12:43:19;;;;;;;;;15.67;14.67;;;;;;;;5067208;28;46533;-65
2022/06/02 12:45:47;;;;;;;;;13.00;12.67;;;;;;;;5057194;28;45364;-65
2022/06/02 12:48:24;;;;;;;;;14.67;14.67;;;;;;;;5059030;28;45475;-65
2022/06/02 12:51:09;;;;;;;;;11.67;11.67;;;;;;;;5070813;28;45437;-65
2022/06/02 12:53:41;;;;;;;;;11.67;11.00;;;;;;;;5058431;28;47351;-65
2022/06/02 12:56:25;;;;;;;;;16.67;16.67;;;;;;;;5057833;28;45388;-65
2022/06/02 12:58:53;;;;;;;;;15.00;13.00;;;;;;;;5058157;28;45210;-65
2022/06/02 13:01:37;;;;;;;;;11.67;10.00;;;;;;;;5057351;28;45424;-65
2022/06/02 13:04:21;;;;;;;;;15.33;15.33;;;;;;;;5055556;28;46178;-64
2022/06/02 13:06:49;;;;;;;;;16.33;15.33;;;;;;;;5056920;28;45425;-65
2022/06/02 13:09:20;;;;;;;;;12.33;11.33;;;;;;;;5056541;28;45447;-64
2022/06/02 13:11:45;;;;;;;;;10.33;9.33;;;;;;;;5056895;28;45385;-65
2022/06/02 13:14:17;;;;;;;;;9.33;8.00;;;;;;;;5066603;28;45478;-65
2022/06/02 13:16:48;;;;;;;;;6.67;6.33;;;;;;;;5056700;28;45338;-65
2022/06/02 13:19:19;;;;;;;;;9.00;9.00;;;;;;;;5063011;28;45392;-65
2022/06/02 13:21:50;;;;;;;;;12.33;12.33;;;;;;;;5057310;28;45401;-65
2022/06/02 13:24:34;;;;;;;;;11.67;11.67;;;;;;;;5057163;28;45714;-65
2022/06/02 13:27:03;;;;;;;;;13.00;10.33;;;;;;;;5057092;28;45329;-65
2022/06/02 13:29:46;;;;;;;;;13.00;9.67;;;;;;;;5062784;28;45829;-65
2022/06/02 13:32:29;;;;;;;;;7.33;7.33;;;;;;;;5077600;28;45265;-65
2022/06/02 13:35:13;;;;;;;;;9.33;9.00;;;;;;;;5059006;28;47530;-65
2022/06/02 13:37:45;;;;;;;;;12.33;9.33;;;;;;;;5077194;28;45372;-65
2022/06/02 13:40:10;;;;;;;;;10.00;8.33;;;;;;;;5077600;28;45301;-65
2022/06/02 13:42:47;;;;;;;;;7.00;7.00;;;;;;;;5077721;28;45306;-65
2022/06/02 13:45:32;;;;;;;;;8.00;7.33;;;;;;;;5077104;28;46111;-65
2022/06/02 13:48:15;;;;;;;;;11.00;9.33;;;;;;;;5077014;28;45523;-65
2022/06/02 13:50:46;;;;;;;;;8.67;8.67;;;;;;;;5077175;28;45294;-65
2022/06/02 13:53:20;;;;;;;;;8.00;8.00;;;;;;;;5064372;28;45307;-64
2022/06/02 13:58:34;;;;;;;;;13.00;12.33;;;;;;;;5056962;28;45302;-65
2022/06/02 14:01:05;;;;;;;;;11.33;10.00;;;;;;;;5056931;28;45320;-65
2022/06/02 14:03:39;;;;;;;;;9.33;9.00;;;;;;;;5057954;28;45796;-65
2022/06/02 14:06:06;;;;;;;;;8.00;8.00;;;;;;;;5065474;28;46353;-66
2022/06/02 14:08:50;;;;;;;;;7.33;7.33;;;;;;;;5075073;28;45563;-65
2022/06/02 14:11:33;;;;;;;;;14.00;14.00;;;;;;;;5077007;28;45717;-65
2022/06/02 14:14:17;;;;;;;;;11.00;10.00;;;;;;;;5059740;28;45569;-65
2022/06/02 14:16:48;;;;;;;;;9.00;8.00;;;;;;;;5075436;28;45728;-65
2022/06/02 14:19:19;;;;;;;;;9.33;8.33;;;;;;;;5050948;28;45397;-66
2022/06/02 14:21:54;;;;;;;;;8.67;8.00;;;;;;;;5061132;28;45416;-65
2022/06/02 14:24:42;;;;;;;;;6.67;6.67;;;;;;;;5060392;28;45452;-65
2022/06/02 14:27:26;;;;;;;;;6.33;6.33;;;;;;;;5044989;28;45504;-65
2022/06/02 14:30:09;;;;;;;;;7.33;7.33;;;;;;;;5050059;28;45365;-64
2022/06/02 14:33:12;;;;;;;;;9.33;8.00;;;;;;;;5057866;28;45479;-65
2022/06/02 14:35:39;;;;;;;;;9.00;8.67;;;;;;;;4978362;28;45267;-65
2022/06/02 14:38:20;;;;;;;;;8.00;8.00;;;;;;;;4978256;28;45299;-65
2022/06/02 14:41:04;;;;;;;;;8.00;8.00;;;;;;;;4978163;28;45336;-65
2022/06/02 14:43:41;;;;;;;;;6.67;6.67;;;;;;;;4978238;28;45433;-64
2022/06/02 14:46:09;;;;;;;;;9.33;8.33;;;;;;;;4978182;28;45272;-65
2022/06/02 14:48:50;;;;;;;;;7.00;6.00;;;;;;;;4977732;28;46118;-65
2022/06/02 14:51:18;;;;;;;;;7.00;7.00;;;;;;;;4977906;28;45469;-65
2022/06/02 14:53:49;;;;;;;;;7.67;6.00;;;;;;;;4978028;28;45636;-65
2022/06/02 14:56:20;;;;;;;;;7.67;6.00;;;;;;;;4977637;28;45420;-65
2022/06/02 14:59:01;;;;;;;;;6.00;6.00;;;;;;;;4977841;28;46167;-65
2022/06/02 15:01:38;;;;;;;;;4.33;3.00;;;;;;;;4977524;28;45322;-65
2022/06/02 15:04:22;;;;;;;;;5.00;3.67;;;;;;;;4977924;28;45493;-65
2022/06/02 15:07:02;;;;;;;;;4.00;4.00;;;;;;;;4978183;28;45348;-65
2022/06/02 15:09:37;;;;;;;;;4.67;4.67;;;;;;;;5013972;28;46714;-65
2022/06/02 15:12:05;;;;;;;;;7.67;5.00;;;;;;;;5059185;28;45330;-64
2022/06/02 15:14:46;;;;;;;;;7.00;5.00;;;;;;;;5059590;28;45315;-64
2022/06/02 15:17:20;;;;;;;;;5.33;5.33;;;;;;;;5059436;28;45405;-65
2022/06/02 15:19:48;;;;;;;;;8.00;6.00;;;;;;;;5059238;28;45564;-65